createdAt,value
2018-11-09T00:00:10.713Z,91.17
2018-11-09T00:00:36.960Z,90.99
2018-11-09T00:01:03.140Z,90.99
2018-11-09T00:01:29.316Z,90.8
2018-11-09T00:01:55.503Z,90.7
2018-11-09T00:02:21.677Z,90.51
2018-11-09T00:02:47.890Z,90.51
2018-11-09T00:03:14.064Z,90.51
2018-11-09T00:03:40.249Z,90.99
2018-11-09T00:04:06.453Z,90.42
2018-11-09T00:04:32.645Z,90.7
2018-11-09T00:04:58.816Z,90.7
2018-11-09T00:05:25.066Z,90.51
2018-11-09T00:05:51.251Z,90.42
2018-11-09T00:06:17.434Z,90.51
2018-11-09T00:06:43.617Z,90.51
2018-11-09T00:07:09.807Z,90.8
2018-11-09T00:07:35.985Z,90.89
2018-11-09T00:08:02.169Z,90.99
2018-11-09T00:08:28.383Z,91.27
2018-11-09T00:08:54.571Z,90.99
2018-11-09T00:09:20.786Z,91.17
2018-11-09T00:09:46.972Z,91.37
2018-11-09T00:10:13.186Z,91.56
2018-11-09T00:10:39.368Z,91.84
2018-11-09T00:11:05.550Z,91.65
2018-11-09T00:11:31.731Z,91.84
2018-11-09T00:11:57.917Z,91.65
2018-11-09T00:12:24.094Z,91.46
2018-11-09T00:12:50.312Z,91.46
2018-11-09T00:13:16.487Z,91.65
2018-11-09T00:13:42.671Z,91.84
2018-11-09T00:14:08.862Z,91.75
2018-11-09T00:14:35.039Z,91.65
2018-11-09T00:15:01.222Z,91.46
2018-11-09T00:15:27.438Z,91.37
2018-11-09T00:15:53.651Z,91.84
2018-11-09T00:16:19.852Z,91.84
2018-11-09T00:16:46.067Z,91.84
2018-11-09T00:17:12.250Z,91.46
2018-11-09T00:17:38.462Z,91.56
2018-11-09T00:18:04.654Z,91.27
2018-11-09T00:18:30.824Z,91.65
2018-11-09T00:18:57.035Z,91.27
2018-11-09T00:19:23.248Z,91.46
2018-11-09T00:19:49.430Z,91.75
2018-11-09T00:20:15.617Z,91.84
2018-11-09T00:20:41.796Z,91.84
2018-11-09T00:21:08.015Z,91.65
2018-11-09T00:21:34.192Z,91.37
2018-11-09T00:22:00.379Z,91.17
2018-11-09T00:22:26.551Z,92.03
2018-11-09T00:22:52.770Z,91.56
2018-11-09T00:23:18.988Z,92.32
2018-11-09T00:23:45.280Z,92.22
2018-11-09T00:24:11.445Z,92.13
2018-11-09T00:24:37.625Z,92.03
2018-11-09T00:25:03.815Z,92.22
2018-11-09T00:25:30.023Z,92.41
2018-11-09T00:25:56.207Z,92.32
2018-11-09T00:26:22.463Z,92.41
2018-11-09T00:26:48.628Z,92.51
2018-11-09T00:27:14.810Z,92.03
2018-11-09T00:27:40.992Z,92.51
2018-11-09T00:28:07.228Z,92.32
2018-11-09T00:28:33.406Z,92.13
2018-11-09T00:28:59.590Z,92.41
2018-11-09T00:29:25.809Z,92.03
2018-11-09T00:29:51.978Z,91.94
2018-11-09T00:30:18.164Z,92.41
2018-11-09T00:30:44.351Z,92.13
2018-11-09T00:31:10.532Z,92.03
2018-11-09T00:31:36.711Z,92.13
2018-11-09T00:32:02.893Z,92.51
2018-11-09T00:32:29.080Z,92.32
2018-11-09T00:32:55.257Z,92.79
2018-11-09T00:33:21.466Z,92.22
2018-11-09T00:33:47.651Z,92.51
2018-11-09T00:34:13.867Z,92.51
2018-11-09T00:34:40.215Z,92.41
2018-11-09T00:35:06.257Z,92.51
2018-11-09T00:35:32.440Z,92.7
2018-11-09T00:35:58.621Z,92.6
2018-11-09T00:36:24.799Z,92.22
2018-11-09T00:36:50.989Z,92.22
2018-11-09T00:37:17.170Z,92.51
2018-11-09T00:37:43.387Z,92.6
2018-11-09T00:38:09.610Z,92.6
2018-11-09T00:38:35.823Z,92.7
2018-11-09T00:39:02.002Z,92.6
2018-11-09T00:39:28.216Z,92.32
2018-11-09T00:39:54.425Z,92.7
2018-11-09T00:40:20.651Z,92.41
2018-11-09T00:40:46.851Z,92.51
2018-11-09T00:41:13.031Z,92.41
2018-11-09T00:41:39.231Z,92.41
2018-11-09T00:42:05.428Z,92.32
2018-11-09T00:42:31.610Z,92.6
2018-11-09T00:42:57.786Z,92.41
2018-11-09T00:43:23.975Z,92.22
2018-11-09T00:43:50.158Z,92.41
2018-11-09T00:44:16.333Z,92.6
2018-11-09T00:44:42.549Z,92.41
2018-11-09T00:45:08.738Z,92.51
2018-11-09T00:45:34.917Z,92.22
2018-11-09T00:46:01.100Z,91.94
2018-11-09T00:46:27.280Z,92.22
2018-11-09T00:46:53.457Z,92.32
2018-11-09T00:47:19.709Z,92.32
2018-11-09T00:47:45.850Z,92.41
2018-11-09T00:48:12.033Z,92.22
2018-11-09T00:48:38.240Z,92.32
2018-11-09T00:49:04.453Z,92.41
2018-11-09T00:49:30.741Z,92.51
2018-11-09T00:49:56.989Z,92.41
2018-11-09T00:50:23.235Z,92.13
2018-11-09T00:50:49.517Z,92.41
2018-11-09T00:51:15.576Z,92.41
2018-11-09T00:51:41.756Z,92.51
2018-11-09T00:52:07.948Z,92.41
2018-11-09T00:52:34.168Z,92.22
2018-11-09T00:53:00.345Z,92.22
2018-11-09T00:53:26.627Z,92.32
2018-11-09T00:53:52.810Z,92.32
2018-11-09T00:54:18.998Z,92.41
2018-11-09T00:54:45.211Z,92.41
2018-11-09T00:55:11.384Z,92.22
2018-11-09T00:55:37.570Z,92.41
2018-11-09T00:56:03.857Z,92.27
2018-11-09T00:56:30.012Z,92.32
2018-11-09T00:56:56.195Z,92.51
2018-11-09T00:57:22.413Z,92.08
2018-11-09T00:57:48.891Z,92.27
2018-11-09T00:58:15.743Z,92.46
2018-11-09T00:58:41.939Z,92.46
2018-11-09T00:59:08.244Z,92.65
2018-11-09T00:59:34.432Z,92.84
2018-11-09T01:00:00.629Z,92.27
2018-11-09T01:00:26.794Z,92.36
2018-11-09T01:00:52.974Z,92.46
2018-11-09T01:01:19.160Z,92.55
2018-11-09T01:01:45.368Z,92.27
2018-11-09T01:02:11.563Z,92.08
2018-11-09T01:02:37.735Z,92.08
2018-11-09T01:03:03.921Z,92.65
2018-11-09T01:03:30.206Z,92.27
2018-11-09T01:03:56.543Z,92.36
2018-11-09T01:04:22.717Z,92.08
2018-11-09T01:04:48.901Z,91.99
2018-11-09T01:05:15.087Z,92.55
2018-11-09T01:05:41.266Z,91.89
2018-11-09T01:06:07.516Z,92.55
2018-11-09T01:06:33.755Z,92.46
2018-11-09T01:06:59.930Z,91.99
2018-11-09T01:07:26.120Z,92.36
2018-11-09T01:07:52.336Z,92.55
2018-11-09T01:08:19.234Z,92.18
2018-11-09T01:08:45.410Z,92.18
2018-11-09T01:09:11.832Z,92.46
2018-11-09T01:09:37.877Z,92.08
2018-11-09T01:10:04.055Z,92.08
2018-11-09T01:10:30.267Z,92.18
2018-11-09T01:10:56.473Z,92.08
2018-11-09T01:11:22.654Z,91.89
2018-11-09T01:11:48.831Z,92.55
2018-11-09T01:12:15.017Z,92.84
2018-11-09T01:12:41.193Z,92.65
2018-11-09T01:13:07.374Z,92.55
2018-11-09T01:13:33.560Z,92.27
2018-11-09T01:13:59.734Z,92.36
2018-11-09T01:14:25.910Z,92.36
2018-11-09T01:14:52.321Z,92.46
2018-11-09T01:15:18.504Z,92.27
2018-11-09T01:15:45.578Z,92.65
2018-11-09T01:16:11.741Z,92.27
2018-11-09T01:16:37.926Z,92.46
2018-11-09T01:17:04.107Z,92.74
2018-11-09T01:17:30.288Z,93.03
2018-11-09T01:17:56.467Z,92.94
2018-11-09T01:18:22.681Z,93.22
2018-11-09T01:18:48.868Z,92.46
2018-11-09T01:19:15.047Z,92.27
2018-11-09T01:19:41.232Z,92.55
2018-11-09T01:20:07.407Z,92.46
2018-11-09T01:20:33.587Z,92.46
2018-11-09T01:20:59.774Z,92.55
2018-11-09T01:21:25.989Z,92.46
2018-11-09T01:21:52.209Z,92.08
2018-11-09T01:22:18.395Z,92.46
2018-11-09T01:22:44.575Z,92.46
2018-11-09T01:23:10.789Z,92.94
2018-11-09T01:23:36.975Z,92.46
2018-11-09T01:24:03.146Z,92.55
2018-11-09T01:24:29.373Z,91.7
2018-11-09T01:24:55.547Z,92.18
2018-11-09T01:25:21.761Z,92.18
2018-11-09T01:25:47.936Z,92.46
2018-11-09T01:26:14.154Z,92.46
2018-11-09T01:26:40.373Z,92.84
2018-11-09T01:27:06.656Z,93.7
2018-11-09T01:27:32.833Z,94.56
2018-11-09T01:27:59.021Z,94.93
2018-11-09T01:28:25.197Z,95.03
2018-11-09T01:28:51.416Z,95.79
2018-11-09T01:29:17.632Z,95.7
2018-11-09T01:29:43.812Z,96.27
2018-11-09T01:30:10.029Z,96.36
2018-11-09T01:30:36.206Z,96.65
2018-11-09T01:31:02.418Z,96.65
2018-11-09T01:31:28.605Z,96.27
2018-11-09T01:31:54.784Z,97.22
2018-11-09T01:32:20.962Z,97.99
2018-11-09T01:32:47.144Z,99.79
2018-11-09T01:33:13.328Z,99.99
2018-11-09T01:33:39.520Z,99.99
2018-11-09T01:34:05.684Z,99.99
2018-11-09T01:34:31.866Z,99.99
2018-11-09T01:34:58.081Z,99.99
2018-11-09T01:35:24.329Z,99.99
2018-11-09T01:35:50.603Z,99.99
2018-11-09T01:36:16.841Z,99.99
2018-11-09T01:36:43.022Z,99.99
2018-11-09T01:37:09.202Z,99.99
2018-11-09T01:37:35.389Z,99.99
2018-11-09T01:38:01.600Z,99.99
2018-11-09T01:38:27.787Z,99.99
2018-11-09T01:38:53.992Z,99.99
2018-11-09T01:39:20.178Z,99.99
2018-11-09T01:39:46.390Z,99.99
2018-11-09T01:40:12.575Z,99.99
2018-11-09T01:40:38.760Z,99.99
2018-11-09T01:41:04.976Z,99.99
2018-11-09T01:41:31.189Z,99.99
2018-11-09T01:41:57.377Z,99.99
2018-11-09T01:42:23.618Z,99.99
2018-11-09T01:42:49.801Z,99.99
2018-11-09T01:43:15.980Z,99.99
2018-11-09T01:43:42.167Z,99.99
2018-11-09T01:44:08.344Z,99.99
2018-11-09T01:44:34.530Z,99.99
2018-11-09T01:45:00.705Z,99.99
2018-11-09T01:45:26.889Z,99.99
2018-11-09T01:45:53.066Z,99.99
2018-11-09T01:46:19.249Z,99.99
2018-11-09T01:46:45.471Z,99.99
2018-11-09T01:47:11.647Z,99.99
2018-11-09T01:47:37.833Z,99.99
2018-11-09T01:48:04.016Z,99.99
2018-11-09T01:48:30.192Z,99.99
2018-11-09T01:48:56.374Z,99.99
2018-11-09T01:49:22.584Z,99.99
2018-11-09T01:49:48.795Z,99.99
2018-11-09T01:50:14.988Z,99.99
2018-11-09T01:50:41.161Z,99.99
2018-11-09T01:51:07.343Z,99.99
2018-11-09T01:51:33.558Z,99.99
2018-11-09T01:51:59.740Z,99.99
2018-11-09T01:52:25.925Z,99.99
2018-11-09T01:52:52.104Z,99.99
2018-11-09T01:53:18.292Z,99.99
2018-11-09T01:53:44.462Z,99.99
2018-11-09T01:54:10.647Z,99.99
2018-11-09T01:54:36.860Z,99.99
2018-11-09T01:55:03.038Z,99.99
2018-11-09T01:55:29.225Z,99.99
2018-11-09T01:55:55.480Z,99.99
2018-11-09T01:56:21.688Z,99.99
2018-11-09T01:56:47.868Z,99.99
2018-11-09T01:57:14.082Z,99.99
2018-11-09T01:57:40.295Z,99.99
2018-11-09T01:58:06.565Z,99.99
2018-11-09T01:58:32.820Z,99.99
2018-11-09T01:58:59.001Z,99.99
2018-11-09T01:59:25.186Z,99.99
2018-11-09T01:59:51.359Z,99.99
2018-11-09T02:00:17.581Z,99.99
2018-11-09T02:00:43.752Z,99.99
2018-11-09T02:01:09.974Z,99.99
2018-11-09T02:01:36.162Z,99.99
2018-11-09T02:02:02.343Z,99.99
2018-11-09T02:02:28.522Z,99.99
2018-11-09T02:02:54.711Z,99.99
2018-11-09T02:03:20.923Z,99.99
2018-11-09T02:03:47.106Z,99.99
2018-11-09T02:04:13.299Z,99.99
2018-11-09T02:04:39.506Z,99.99
2018-11-09T02:05:05.689Z,99.99
2018-11-09T02:05:31.906Z,99.99
2018-11-09T02:05:58.089Z,99.99
2018-11-09T02:06:24.266Z,99.99
2018-11-09T02:06:50.449Z,99.99
2018-11-09T02:07:16.663Z,99.99
2018-11-09T02:07:42.873Z,99.99
2018-11-09T02:08:09.061Z,99.99
2018-11-09T02:08:35.239Z,99.99
2018-11-09T02:09:01.479Z,99.99
2018-11-09T02:09:27.661Z,99.99
2018-11-09T02:09:53.853Z,99.99
2018-11-09T02:10:20.083Z,99.99
2018-11-09T02:10:46.262Z,99.99
2018-11-09T02:11:12.499Z,99.99
2018-11-09T02:11:38.685Z,99.99
2018-11-09T02:12:04.874Z,99.99
2018-11-09T02:12:31.049Z,99.99
2018-11-09T02:12:57.225Z,99.99
2018-11-09T02:13:23.405Z,99.99
2018-11-09T02:13:49.594Z,99.99
2018-11-09T02:14:15.777Z,99.99
2018-11-09T02:14:41.995Z,99.99
2018-11-09T02:15:08.211Z,99.99
2018-11-09T02:15:34.395Z,99.99
2018-11-09T02:16:00.609Z,99.99
2018-11-09T02:16:26.829Z,99.99
2018-11-09T02:16:53.044Z,99.99
2018-11-09T02:17:19.228Z,99.99
2018-11-09T02:17:45.401Z,99.99
2018-11-09T02:18:11.590Z,99.99
2018-11-09T02:18:37.778Z,99.99
2018-11-09T02:19:04.186Z,99.99
2018-11-09T02:19:30.149Z,99.99
2018-11-09T02:19:56.331Z,99.99
2018-11-09T02:20:22.577Z,99.99
2018-11-09T02:20:48.754Z,99.99
2018-11-09T02:21:14.947Z,99.99
2018-11-09T02:21:41.124Z,99.99
2018-11-09T02:22:07.306Z,99.99
2018-11-09T02:22:33.527Z,99.99
2018-11-09T02:22:59.743Z,99.99
2018-11-09T02:23:25.920Z,99.99
2018-11-09T02:23:52.138Z,99.99
2018-11-09T02:24:18.321Z,99.99
2018-11-09T02:24:44.527Z,99.99
2018-11-09T02:25:10.810Z,99.99
2018-11-09T02:25:36.997Z,99.99
2018-11-09T02:26:03.176Z,99.99
2018-11-09T02:26:29.394Z,99.99
2018-11-09T02:26:55.577Z,99.99
2018-11-09T02:27:21.760Z,99.99
2018-11-09T02:27:47.936Z,99.99
2018-11-09T02:28:14.126Z,99.99
2018-11-09T02:28:40.304Z,99.99
2018-11-09T02:29:06.519Z,99.99
2018-11-09T02:29:32.725Z,99.99
2018-11-09T02:29:58.912Z,99.99
2018-11-09T02:30:25.089Z,99.99
2018-11-09T02:30:51.364Z,99.99
2018-11-09T02:31:17.540Z,99.99
2018-11-09T02:31:43.752Z,99.99
2018-11-09T02:32:09.972Z,99.99
2018-11-09T02:32:36.151Z,99.99
2018-11-09T02:33:02.432Z,99.99
2018-11-09T02:33:28.610Z,99.99
2018-11-09T02:33:54.790Z,99.99
2018-11-09T02:34:21.010Z,99.99
2018-11-09T02:34:47.226Z,99.99
2018-11-09T02:35:13.451Z,99.99
2018-11-09T02:35:39.695Z,99.99
2018-11-09T02:36:05.879Z,99.99
2018-11-09T02:36:32.066Z,99.99
2018-11-09T02:36:58.275Z,99.99
2018-11-09T02:37:24.446Z,99.99
2018-11-09T02:37:50.638Z,99.99
2018-11-09T02:38:16.861Z,99.99
2018-11-09T02:38:43.104Z,99.99
2018-11-09T02:39:09.275Z,99.99
2018-11-09T02:39:35.461Z,99.99
2018-11-09T02:40:01.709Z,99.99
2018-11-09T02:40:27.892Z,99.99
2018-11-09T02:40:54.075Z,99.99
2018-11-09T02:41:20.254Z,99.99
2018-11-09T02:41:46.471Z,99.99
2018-11-09T02:42:12.662Z,99.99
2018-11-09T02:42:38.848Z,99.99
2018-11-09T02:43:05.026Z,99.99
2018-11-09T02:43:31.213Z,99.99
2018-11-09T02:43:57.394Z,99.99
2018-11-09T02:44:23.573Z,99.99
2018-11-09T02:44:49.757Z,99.99
2018-11-09T02:45:15.934Z,99.99
2018-11-09T02:45:42.153Z,99.99
2018-11-09T02:46:08.333Z,99.99
2018-11-09T02:46:34.549Z,99.99
2018-11-09T02:47:00.729Z,99.99
2018-11-09T02:47:27.057Z,99.99
2018-11-09T02:47:53.124Z,99.99
2018-11-09T02:48:19.312Z,99.99
2018-11-09T02:48:45.523Z,99.99
2018-11-09T02:49:11.707Z,99.99
2018-11-09T02:49:37.886Z,99.99
2018-11-09T02:50:04.081Z,99.99
2018-11-09T02:50:30.289Z,99.99
2018-11-09T02:50:56.514Z,99.99
2018-11-09T02:51:22.681Z,99.99
2018-11-09T02:51:48.901Z,99.99
2018-11-09T02:52:15.077Z,99.99
2018-11-09T02:52:41.328Z,99.99
2018-11-09T02:53:07.537Z,99.99
2018-11-09T02:53:33.754Z,99.99
2018-11-09T02:53:59.936Z,99.99
2018-11-09T02:54:26.153Z,99.99
2018-11-09T02:54:52.364Z,99.99
2018-11-09T02:55:18.543Z,99.99
2018-11-09T02:55:44.730Z,99.99
2018-11-09T02:56:10.905Z,99.99
2018-11-09T02:56:37.121Z,99.99
2018-11-09T02:57:03.301Z,99.99
2018-11-09T02:57:29.480Z,99.99
2018-11-09T02:57:55.663Z,99.99
2018-11-09T02:58:21.843Z,99.99
2018-11-09T02:58:48.030Z,99.99
2018-11-09T02:59:14.247Z,99.99
2018-11-09T02:59:40.430Z,99.99
2018-11-09T03:00:06.646Z,99.99
2018-11-09T03:00:32.861Z,99.99
2018-11-09T03:00:59.042Z,99.99
2018-11-09T03:01:25.257Z,99.99
2018-11-09T03:01:51.447Z,99.99
2018-11-09T03:02:17.630Z,99.99
2018-11-09T03:02:43.837Z,99.99
2018-11-09T03:03:10.027Z,99.99
2018-11-09T03:03:36.965Z,99.99
2018-11-09T03:04:04.058Z,99.99
2018-11-09T03:04:30.324Z,99.99
2018-11-09T03:04:56.583Z,99.99
2018-11-09T03:05:22.803Z,99.99
2018-11-09T03:05:49.037Z,99.99
2018-11-09T03:06:15.216Z,99.99
2018-11-09T03:06:41.439Z,99.99
2018-11-09T03:07:07.624Z,99.99
2018-11-09T03:07:33.806Z,99.99
2018-11-09T03:08:00.021Z,99.99
2018-11-09T03:08:26.223Z,99.99
2018-11-09T03:08:52.409Z,99.99
2018-11-09T03:09:18.591Z,99.99
2018-11-09T03:09:44.776Z,99.99
2018-11-09T03:10:10.960Z,99.99
2018-11-09T03:10:37.162Z,99.99
2018-11-09T03:11:03.351Z,99.99
2018-11-09T03:11:29.566Z,99.99
2018-11-09T03:11:55.745Z,99.99
2018-11-09T03:12:21.929Z,99.99
2018-11-09T03:12:48.107Z,99.99
2018-11-09T03:13:14.313Z,99.99
2018-11-09T03:13:40.500Z,99.99
2018-11-09T03:14:06.683Z,99.99
2018-11-09T03:14:32.864Z,99.99
2018-11-09T03:14:59.044Z,99.99
2018-11-09T03:15:25.231Z,99.99
2018-11-09T03:15:51.413Z,99.99
2018-11-09T03:16:17.590Z,99.99
2018-11-09T03:16:43.765Z,99.99
2018-11-09T03:17:09.949Z,99.99
2018-11-09T03:17:36.141Z,99.99
2018-11-09T03:18:02.321Z,99.99
2018-11-09T03:18:28.504Z,99.99
2018-11-09T03:18:54.711Z,99.99
2018-11-09T03:19:20.886Z,99.99
2018-11-09T03:19:47.108Z,99.99
2018-11-09T03:20:13.288Z,99.99
2018-11-09T03:20:39.473Z,99.99
2018-11-09T03:21:05.652Z,99.99
2018-11-09T03:21:31.833Z,99.99
2018-11-09T03:21:58.060Z,99.99
2018-11-09T03:22:24.232Z,99.99
2018-11-09T03:22:50.412Z,99.99
2018-11-09T03:23:16.628Z,99.99
2018-11-09T03:23:42.841Z,99.99
2018-11-09T03:24:09.028Z,99.99
2018-11-09T03:24:35.206Z,99.99
2018-11-09T03:25:01.390Z,99.99
2018-11-09T03:25:27.604Z,99.99
2018-11-09T03:25:53.822Z,99.99
2018-11-09T03:26:19.998Z,99.99
2018-11-09T03:26:46.254Z,99.99
2018-11-09T03:27:12.433Z,99.99
2018-11-09T03:27:38.617Z,99.99
2018-11-09T03:28:04.834Z,99.99
2018-11-09T03:28:31.011Z,99.99
2018-11-09T03:28:57.193Z,99.99
2018-11-09T03:29:23.376Z,99.99
2018-11-09T03:29:49.566Z,99.99
2018-11-09T03:30:15.800Z,99.99
2018-11-09T03:30:41.992Z,99.99
2018-11-09T03:31:08.171Z,99.99
2018-11-09T03:31:34.421Z,99.99
2018-11-09T03:32:00.640Z,99.99
2018-11-09T03:32:26.853Z,99.99
2018-11-09T03:32:53.097Z,99.99
2018-11-09T03:33:19.276Z,99.99
2018-11-09T03:33:45.458Z,99.99
2018-11-09T03:34:11.667Z,99.99
2018-11-09T03:34:37.854Z,99.99
2018-11-09T03:35:04.037Z,99.99
2018-11-09T03:35:30.216Z,99.99
2018-11-09T03:35:56.404Z,99.99
2018-11-09T03:36:22.620Z,99.99
2018-11-09T03:36:48.805Z,99.99
2018-11-09T03:37:15.019Z,99.99
2018-11-09T03:37:41.198Z,99.99
2018-11-09T03:38:07.379Z,99.99
2018-11-09T03:38:33.598Z,99.99
2018-11-09T03:38:59.819Z,99.99
2018-11-09T03:39:25.992Z,99.99
2018-11-09T03:39:52.175Z,99.99
2018-11-09T03:40:18.361Z,99.99
2018-11-09T03:40:44.568Z,99.99
2018-11-09T03:41:10.747Z,99.99
2018-11-09T03:41:36.929Z,99.99
2018-11-09T03:42:03.112Z,99.99
2018-11-09T03:42:29.292Z,99.99
2018-11-09T03:42:55.472Z,99.99
2018-11-09T03:43:21.657Z,99.99
2018-11-09T03:43:47.840Z,99.99
2018-11-09T03:44:14.024Z,99.99
2018-11-09T03:44:40.210Z,99.99
2018-11-09T03:45:06.390Z,99.99
2018-11-09T03:45:32.568Z,99.99
2018-11-09T03:45:58.790Z,99.99
2018-11-09T03:46:24.968Z,99.99
2018-11-09T03:46:51.149Z,99.99
2018-11-09T03:47:17.336Z,99.99
2018-11-09T03:47:43.514Z,99.99
2018-11-09T03:48:09.728Z,99.99
2018-11-09T03:48:35.914Z,99.99
2018-11-09T03:49:02.093Z,99.99
2018-11-09T03:49:28.276Z,99.99
2018-11-09T03:49:54.453Z,99.99
2018-11-09T03:50:20.635Z,99.99
2018-11-09T03:50:46.826Z,99.99
2018-11-09T03:51:13.002Z,99.99
2018-11-09T03:51:39.216Z,99.99
2018-11-09T03:52:05.401Z,99.99
2018-11-09T03:52:31.582Z,99.99
2018-11-09T03:52:57.744Z,99.99
2018-11-09T03:53:23.934Z,99.99
2018-11-09T03:53:50.102Z,99.99
2018-11-09T03:54:16.260Z,99.99
2018-11-09T03:54:42.385Z,99.99
2018-11-09T03:55:08.520Z,99.99
2018-11-09T03:55:34.665Z,99.99
2018-11-09T03:56:00.795Z,99.99
2018-11-09T03:56:26.949Z,99.99
2018-11-09T03:56:53.134Z,99.99
2018-11-09T03:57:19.218Z,99.99
2018-11-09T03:57:45.352Z,99.99
2018-11-09T03:58:11.480Z,99.99
2018-11-09T03:58:37.611Z,99.99
2018-11-09T03:59:03.736Z,99.99
2018-11-09T03:59:29.861Z,99.99
2018-11-09T03:59:55.994Z,99.99
2018-11-09T04:00:22.149Z,99.99
2018-11-09T04:00:48.279Z,99.99
2018-11-09T04:01:14.438Z,99.99
2018-11-09T04:01:40.592Z,99.99
2018-11-09T04:02:06.721Z,99.99
2018-11-09T04:02:32.853Z,99.99
2018-11-09T04:02:58.989Z,99.99
2018-11-09T04:03:25.144Z,99.99
2018-11-09T04:03:51.259Z,99.99
2018-11-09T04:04:17.410Z,99.99
2018-11-09T04:04:43.559Z,99.99
2018-11-09T04:05:09.689Z,99.99
2018-11-09T04:05:35.843Z,99.99
2018-11-09T04:06:01.986Z,99.99
2018-11-09T04:06:28.120Z,99.99
2018-11-09T04:06:54.252Z,99.99
2018-11-09T04:07:20.385Z,99.99
2018-11-09T04:07:46.524Z,99.99
2018-11-09T04:08:12.659Z,99.99
2018-11-09T04:08:38.791Z,99.99
2018-11-09T04:09:04.939Z,99.99
2018-11-09T04:09:31.096Z,99.99
2018-11-09T04:09:57.223Z,99.99
2018-11-09T04:10:23.378Z,99.99
2018-11-09T04:10:49.511Z,99.99
2018-11-09T04:11:15.668Z,99.99
2018-11-09T04:11:41.803Z,99.99
2018-11-09T04:12:07.937Z,99.99
2018-11-09T04:12:34.097Z,99.99
2018-11-09T04:13:00.225Z,99.99
2018-11-09T04:13:26.349Z,99.99
2018-11-09T04:13:52.481Z,99.99
2018-11-09T04:14:18.609Z,99.99
2018-11-09T04:14:44.736Z,99.99
2018-11-09T04:15:10.870Z,99.99
2018-11-09T04:15:37.002Z,99.99
2018-11-09T04:16:03.151Z,99.99
2018-11-09T04:16:29.283Z,99.99
2018-11-09T04:16:55.464Z,99.99
2018-11-09T04:17:21.592Z,99.99
2018-11-09T04:17:47.722Z,99.99
2018-11-09T04:18:13.853Z,99.99
2018-11-09T04:18:40.021Z,99.99
2018-11-09T04:19:06.147Z,99.99
2018-11-09T04:19:32.278Z,99.99
2018-11-09T04:19:58.409Z,99.99
2018-11-09T04:20:24.546Z,99.99
2018-11-09T04:20:50.703Z,99.99
2018-11-09T04:21:16.861Z,99.99
2018-11-09T04:21:42.996Z,99.99
2018-11-09T04:22:09.126Z,99.99
2018-11-09T04:22:35.266Z,99.99
2018-11-09T04:23:01.395Z,99.99
2018-11-09T04:23:27.534Z,99.99
2018-11-09T04:23:53.696Z,99.99
2018-11-09T04:24:19.831Z,99.99
2018-11-09T04:24:45.964Z,99.99
2018-11-09T04:25:12.166Z,99.99
2018-11-09T04:25:38.297Z,99.99
2018-11-09T04:26:04.429Z,99.99
2018-11-09T04:26:30.564Z,99.99
2018-11-09T04:26:56.705Z,99.99
2018-11-09T04:27:22.838Z,99.99
2018-11-09T04:27:48.965Z,99.99
2018-11-09T04:28:15.098Z,99.99
2018-11-09T04:28:41.245Z,99.99
2018-11-09T04:29:07.408Z,99.99
2018-11-09T04:29:33.499Z,99.99
2018-11-09T04:29:59.625Z,99.99
2018-11-09T04:30:25.764Z,99.99
2018-11-09T04:30:51.900Z,99.99
2018-11-09T04:31:18.028Z,99.99
2018-11-09T04:31:44.163Z,99.99
2018-11-09T04:32:10.361Z,99.99
2018-11-09T04:32:36.491Z,99.99
2018-11-09T04:33:02.625Z,99.99
2018-11-09T04:33:28.762Z,99.99
2018-11-09T04:33:54.889Z,99.99
2018-11-09T04:34:21.073Z,99.99
2018-11-09T04:34:47.203Z,99.99
2018-11-09T04:35:13.361Z,99.99
2018-11-09T04:35:39.494Z,99.99
2018-11-09T04:36:05.618Z,99.99
2018-11-09T04:36:31.759Z,99.99
2018-11-09T04:36:57.913Z,99.99
2018-11-09T04:37:24.042Z,99.99
2018-11-09T04:37:50.176Z,99.99
2018-11-09T04:38:16.327Z,99.99
2018-11-09T04:38:42.467Z,99.99
2018-11-09T04:39:08.599Z,99.99
2018-11-09T04:39:34.752Z,99.99
2018-11-09T04:40:00.909Z,99.99
2018-11-09T04:40:27.038Z,99.99
2018-11-09T04:40:53.186Z,99.99
2018-11-09T04:41:19.302Z,99.99
2018-11-09T04:41:45.443Z,99.99
2018-11-09T04:42:11.577Z,99.99
2018-11-09T04:42:37.716Z,99.99
2018-11-09T04:43:03.847Z,99.99
2018-11-09T04:43:29.984Z,99.99
2018-11-09T04:43:56.114Z,99.99
2018-11-09T04:44:22.245Z,99.99
2018-11-09T04:44:48.380Z,99.99
2018-11-09T04:45:14.538Z,99.99
2018-11-09T04:45:40.742Z,99.99
2018-11-09T04:46:06.809Z,99.99
2018-11-09T04:46:32.970Z,99.99
2018-11-09T04:46:59.108Z,99.99
2018-11-09T04:47:25.259Z,99.99
2018-11-09T04:47:51.389Z,99.99
2018-11-09T04:48:17.540Z,99.99
2018-11-09T04:48:43.712Z,99.99
2018-11-09T04:49:09.864Z,99.99
2018-11-09T04:49:36.027Z,99.99
2018-11-09T04:50:02.154Z,99.99
2018-11-09T04:50:28.290Z,99.99
2018-11-09T04:50:54.426Z,99.99
2018-11-09T04:51:20.551Z,99.99
2018-11-09T04:51:46.727Z,99.99
2018-11-09T04:52:12.857Z,99.99
2018-11-09T04:52:38.992Z,99.99
2018-11-09T04:53:05.126Z,99.99
2018-11-09T04:53:31.261Z,99.99
2018-11-09T04:53:57.390Z,99.99
2018-11-09T04:54:23.523Z,99.99
2018-11-09T04:54:49.707Z,99.99
2018-11-09T04:55:15.849Z,99.99
2018-11-09T04:55:41.976Z,99.99
2018-11-09T04:56:08.107Z,99.99
2018-11-09T04:56:34.266Z,99.99
2018-11-09T04:57:00.397Z,99.99
2018-11-09T04:57:26.552Z,99.99
2018-11-09T04:57:52.705Z,99.99
2018-11-09T04:58:18.847Z,99.99
2018-11-09T04:58:44.978Z,99.99
2018-11-09T04:59:11.111Z,99.99
2018-11-09T04:59:37.243Z,99.99
2018-11-09T05:00:03.373Z,99.99
2018-11-09T05:00:29.498Z,99.99
2018-11-09T05:00:55.629Z,99.99
2018-11-09T05:01:21.757Z,99.99
2018-11-09T05:01:47.888Z,99.99
2018-11-09T05:02:14.034Z,99.99
2018-11-09T05:02:40.272Z,99.99
2018-11-09T05:03:06.333Z,99.99
2018-11-09T05:03:32.469Z,99.99
2018-11-09T05:03:58.603Z,99.99
2018-11-09T05:04:24.762Z,99.99
2018-11-09T05:04:50.941Z,99.99
2018-11-09T05:05:17.073Z,99.99
2018-11-09T05:05:43.210Z,99.99
2018-11-09T05:06:09.348Z,99.99
2018-11-09T05:06:35.474Z,99.99
2018-11-09T05:07:01.630Z,99.99
2018-11-09T05:07:27.785Z,99.99
2018-11-09T05:07:53.922Z,99.99
2018-11-09T05:08:20.071Z,99.99
2018-11-09T05:08:46.211Z,99.99
2018-11-09T05:09:12.341Z,99.99
2018-11-09T05:09:38.477Z,99.99
2018-11-09T05:10:04.616Z,99.99
2018-11-09T05:10:30.753Z,99.99
2018-11-09T05:10:56.907Z,99.99
2018-11-09T05:11:23.051Z,99.99
2018-11-09T05:11:49.179Z,99.99
2018-11-09T05:12:15.308Z,99.99
2018-11-09T05:12:41.439Z,99.99
2018-11-09T05:13:07.564Z,99.99
2018-11-09T05:13:33.720Z,99.99
2018-11-09T05:13:59.848Z,99.99
2018-11-09T05:14:26.007Z,99.99
2018-11-09T05:14:52.135Z,99.99
2018-11-09T05:15:18.296Z,99.99
2018-11-09T05:15:44.431Z,99.99
2018-11-09T05:16:10.564Z,99.99
2018-11-09T05:16:36.689Z,99.99
2018-11-09T05:17:02.852Z,99.99
2018-11-09T05:17:28.999Z,99.99
2018-11-09T05:17:55.124Z,99.99
2018-11-09T05:18:21.261Z,99.99
2018-11-09T05:18:47.390Z,99.99
2018-11-09T05:19:13.522Z,99.99
2018-11-09T05:19:39.651Z,99.99
2018-11-09T05:20:05.788Z,99.99
2018-11-09T05:20:32.031Z,99.99
2018-11-09T05:20:58.099Z,99.99
2018-11-09T05:21:24.257Z,99.99
2018-11-09T05:21:50.390Z,99.99
2018-11-09T05:22:16.517Z,99.99
2018-11-09T05:22:42.675Z,99.99
2018-11-09T05:23:08.805Z,99.99
2018-11-09T05:23:34.936Z,99.99
2018-11-09T05:24:01.075Z,99.99
2018-11-09T05:24:27.214Z,99.99
2018-11-09T05:24:53.375Z,99.99
2018-11-09T05:25:19.501Z,99.99
2018-11-09T05:25:45.643Z,99.99
2018-11-09T05:26:11.777Z,99.99
2018-11-09T05:26:37.909Z,99.99
2018-11-09T05:27:04.051Z,99.99
2018-11-09T05:27:30.203Z,99.99
2018-11-09T05:27:56.339Z,99.99
2018-11-09T05:28:22.470Z,99.99
2018-11-09T05:28:48.628Z,99.99
2018-11-09T05:29:14.812Z,99.99
2018-11-09T05:29:40.967Z,99.99
2018-11-09T05:30:07.136Z,99.99
2018-11-09T05:30:33.206Z,99.99
2018-11-09T05:30:59.333Z,99.99
2018-11-09T05:31:25.487Z,99.99
2018-11-09T05:31:51.619Z,99.99
2018-11-09T05:32:17.754Z,99.99
2018-11-09T05:32:43.905Z,99.99
2018-11-09T05:33:10.040Z,99.99
2018-11-09T05:33:36.203Z,99.99
2018-11-09T05:34:02.351Z,99.99
2018-11-09T05:34:28.481Z,99.99
2018-11-09T05:34:54.619Z,99.99
2018-11-09T05:35:20.798Z,99.99
2018-11-09T05:35:46.947Z,99.99
2018-11-09T05:36:13.078Z,99.99
2018-11-09T05:36:39.213Z,99.99
2018-11-09T05:37:05.374Z,99.99
2018-11-09T05:37:31.529Z,99.99